createdAt,value
2017-09-27T00:01:25.996Z,89.47
2017-09-27T00:03:53.288Z,80.27
2017-09-27T00:06:20.624Z,88.40
2017-09-27T00:08:47.969Z,89.10
2017-09-27T00:11:15.272Z,82.30
2017-09-27T00:13:42.588Z,86.60
2017-09-27T00:16:09.893Z,84.13
2017-09-27T00:18:37.200Z,81.30
2017-09-27T00:21:04.508Z,90.23
2017-09-27T00:23:31.844Z,85.30
2017-09-27T00:25:59.252Z,91.37
2017-09-27T00:28:26.573Z,101.27
2017-09-27T00:30:53.928Z,88.73
2017-09-27T00:33:21.517Z,84.90
2017-09-27T00:35:48.824Z,84.27
2017-09-27T00:38:16.112Z,79.40
2017-09-27T00:40:43.432Z,83.23
2017-09-27T00:43:10.737Z,89.83
2017-09-27T00:45:38.057Z,82.97
2017-09-27T00:48:06.361Z,87.70
2017-09-27T00:50:33.708Z,85.63
2017-09-27T00:53:01.327Z,84.50
2017-09-27T00:55:28.648Z,86.23
2017-09-27T00:57:55.958Z,97.97
2017-09-27T01:00:23.285Z,83.10
2017-09-27T01:02:50.593Z,96.87
2017-09-27T01:05:17.923Z,93.77
2017-09-27T01:07:45.228Z,95.80
2017-09-27T01:10:13.028Z,103.27
2017-09-27T01:12:40.352Z,91.97
2017-09-27T01:15:07.816Z,99.63
2017-09-27T01:17:35.137Z,97.60
2017-09-27T01:20:02.440Z,102.80
2017-09-27T01:22:29.764Z,104.90
2017-09-27T01:24:57.071Z,97.23
2017-09-27T01:27:24.391Z,92.07
2017-09-27T01:29:51.697Z,98.80
2017-09-27T01:32:19.041Z,108.17
2017-09-27T01:34:46.349Z,92.10
2017-09-27T01:37:13.688Z,88.70
2017-09-27T01:39:41.044Z,80.83
2017-09-27T01:42:08.364Z,92.57
2017-09-27T01:44:35.693Z,92.57
2017-09-27T01:47:03.965Z,92.17
2017-09-27T01:49:31.289Z,100.00
2017-09-27T01:51:58.598Z,97.17
2017-09-27T01:54:25.920Z,94.80
2017-09-27T01:56:53.228Z,109.37
2017-09-27T01:59:20.580Z,97.20
2017-09-27T02:01:47.916Z,102.97
2017-09-27T02:04:15.249Z,94.10
2017-09-27T02:06:42.561Z,93.93
2017-09-27T02:09:09.880Z,104.47
2017-09-27T02:11:37.243Z,85.77
2017-09-27T02:14:04.531Z,88.77
2017-09-27T02:16:31.868Z,86.87
2017-09-27T02:18:59.193Z,89.30
2017-09-27T02:21:26.523Z,105.23
2017-09-27T02:23:53.816Z,98.80
2017-09-27T02:26:21.132Z,91.37
2017-09-27T02:28:48.465Z,105.53
2017-09-27T02:31:15.822Z,102.53
2017-09-27T02:33:43.156Z,109.43
2017-09-27T02:36:10.536Z,95.80
2017-09-27T02:38:37.841Z,100.43
2017-09-27T02:41:05.163Z,93.07
2017-09-27T02:43:32.547Z,96.87
2017-09-27T02:45:59.851Z,104.63
2017-09-27T02:48:27.213Z,105.90
2017-09-27T02:50:54.532Z,99.77
2017-09-27T02:53:21.858Z,93.77
2017-09-27T02:55:49.164Z,89.63
2017-09-27T02:58:16.510Z,94.23
2017-09-27T03:00:43.804Z,93.20
2017-09-27T03:03:11.160Z,95.13
2017-09-27T03:05:38.476Z,93.23
2017-09-27T03:08:05.772Z,95.47
2017-09-27T03:10:33.096Z,107.03
2017-09-27T03:13:00.403Z,125.23
2017-09-27T03:15:27.762Z,106.57
2017-09-27T03:17:55.060Z,123.90
2017-09-27T03:20:22.389Z,108.47
2017-09-27T03:22:49.769Z,114.83
2017-09-27T03:25:17.459Z,116.23
2017-09-27T03:27:44.761Z,113.53
2017-09-27T03:30:12.117Z,104.43
2017-09-27T03:32:39.449Z,109.30
2017-09-27T03:35:06.821Z,110.80
2017-09-27T03:37:34.128Z,121.37
2017-09-27T03:40:01.443Z,117.13
2017-09-27T03:42:28.795Z,103.03
2017-09-27T03:44:56.093Z,109.67
2017-09-27T03:47:23.416Z,113.67
2017-09-27T03:49:50.728Z,111.20
2017-09-27T03:52:18.053Z,112.93
2017-09-27T03:54:45.368Z,105.57
2017-09-27T03:57:12.898Z,105.23
2017-09-27T03:59:40.210Z,104.10
2017-09-27T04:02:07.561Z,107.50
2017-09-27T04:04:34.885Z,106.97
2017-09-27T04:07:02.269Z,113.60
2017-09-27T04:09:29.573Z,101.23
2017-09-27T04:11:56.877Z,109.43
2017-09-27T04:14:24.195Z,97.30
2017-09-27T04:16:51.776Z,107.73
2017-09-27T04:19:19.128Z,99.77
2017-09-27T04:21:46.437Z,101.93
2017-09-27T04:24:14.092Z,96.23
2017-09-27T04:26:41.388Z,105.27
2017-09-27T04:29:08.704Z,96.80
2017-09-27T04:31:36.029Z,97.67
2017-09-27T04:34:03.416Z,97.57
2017-09-27T04:36:30.728Z,88.63
2017-09-27T04:38:58.054Z,97.63
2017-09-27T04:41:25.417Z,90.53
2017-09-27T04:43:52.789Z,91.10
2017-09-27T04:46:20.104Z,98.77
2017-09-27T04:48:47.424Z,94.17
2017-09-27T04:51:14.729Z,94.13
2017-09-27T04:53:42.052Z,95.63
2017-09-27T04:56:09.360Z,97.80
2017-09-27T04:58:37.084Z,91.23
2017-09-27T05:01:04.411Z,95.60
2017-09-27T05:03:31.720Z,94.60
2017-09-27T05:05:59.037Z,85.40
2017-09-27T05:08:26.372Z,92.03
2017-09-27T05:10:54.003Z,94.87
2017-09-27T05:13:21.358Z,105.53
2017-09-27T05:15:48.694Z,105.37
2017-09-27T05:18:16.044Z,110.13
2017-09-27T05:20:43.362Z,112.43
2017-09-27T05:23:10.673Z,108.40
2017-09-27T05:25:37.993Z,104.23
2017-09-27T05:28:05.304Z,106.40
2017-09-27T05:30:32.649Z,108.43
2017-09-27T05:32:59.968Z,105.10
2017-09-27T05:35:27.336Z,115.50
2017-09-27T05:37:54.655Z,116.13
2017-09-27T05:40:22.010Z,124.27
2017-09-27T05:42:49.334Z,131.37
2017-09-27T05:45:16.749Z,112.13
2017-09-27T05:47:44.071Z,113.00
2017-09-27T05:50:11.375Z,108.03
2017-09-27T05:52:38.717Z,115.13
2017-09-27T05:55:06.045Z,106.57
2017-09-27T05:57:33.406Z,111.17
2017-09-27T06:00:00.717Z,106.33
2017-09-27T06:02:28.119Z,104.50
2017-09-27T06:04:55.425Z,116.43
2017-09-27T06:07:23.404Z,99.97
2017-09-27T06:09:50.963Z,105.53
2017-09-27T06:12:18.437Z,109.53
2017-09-27T06:14:45.775Z,107.63
2017-09-27T06:17:13.162Z,112.00
2017-09-27T06:19:40.621Z,114.30
2017-09-27T06:22:08.044Z,109.77
2017-09-27T06:24:35.594Z,101.23
2017-09-27T06:27:03.011Z,104.07
2017-09-27T06:29:30.398Z,101.23
2017-09-27T06:31:57.710Z,103.83
2017-09-27T06:34:25.356Z,92.70
2017-09-27T06:36:52.698Z,101.40
2017-09-27T06:39:20.369Z,94.63
2017-09-27T06:41:48.690Z,99.57
2017-09-27T06:44:15.940Z,94.90
2017-09-27T06:46:43.294Z,97.27
2017-09-27T06:49:10.620Z,96.30
2017-09-27T06:51:38.018Z,96.37
2017-09-27T06:54:05.328Z,106.33
2017-09-27T06:56:34.506Z,92.70
2017-09-27T06:59:01.853Z,90.73
2017-09-27T07:01:29.188Z,97.33
2017-09-27T07:03:56.524Z,94.17
2017-09-27T07:06:23.861Z,93.03
2017-09-27T07:08:51.195Z,89.30
2017-09-27T07:11:18.638Z,83.60
2017-09-27T07:13:46.013Z,90.60
2017-09-27T07:16:13.321Z,86.03
2017-09-27T07:18:40.689Z,92.17
2017-09-27T07:21:08.001Z,85.60
2017-09-27T07:23:35.321Z,91.80
2017-09-27T07:26:02.621Z,92.27
2017-09-27T07:28:29.944Z,92.83
2017-09-27T07:30:57.260Z,90.77
2017-09-27T07:33:24.609Z,98.27
2017-09-27T07:35:52.054Z,88.50
2017-09-27T07:38:19.694Z,90.93
2017-09-27T07:40:47.269Z,85.70
2017-09-27T07:43:14.633Z,83.63
2017-09-27T07:45:41.958Z,93.00
2017-09-27T07:48:09.272Z,93.93
2017-09-27T07:50:36.955Z,85.80
2017-09-27T07:53:04.260Z,90.07
2017-09-27T07:55:31.654Z,85.63
2017-09-27T07:57:58.953Z,87.17
2017-09-27T08:00:26.308Z,86.10
2017-09-27T08:02:53.617Z,81.97
2017-09-27T08:05:21.109Z,82.03
2017-09-27T08:07:48.817Z,83.50
2017-09-27T08:10:16.123Z,89.30
2017-09-27T08:12:43.451Z,92.00
2017-09-27T08:15:10.749Z,86.80
2017-09-27T08:17:38.154Z,90.50
2017-09-27T08:20:05.477Z,87.37
2017-09-27T08:22:32.826Z,97.27
2017-09-27T08:25:00.125Z,96.10
2017-09-27T08:27:27.461Z,94.00
2017-09-27T08:29:54.793Z,90.50
2017-09-27T08:32:22.164Z,97.37
2017-09-27T08:34:49.473Z,92.00
2017-09-27T08:37:16.816Z,101.27
2017-09-27T08:39:45.098Z,100.20
2017-09-27T08:42:12.478Z,94.50
2017-09-27T08:44:39.808Z,94.67
2017-09-27T08:47:07.118Z,91.63
2017-09-27T08:49:34.462Z,95.77
2017-09-27T08:52:01.777Z,100.60
2017-09-27T08:54:29.148Z,107.37
2017-09-27T08:56:56.470Z,98.67
2017-09-27T08:59:23.834Z,111.03
2017-09-27T09:01:51.158Z,86.57
2017-09-27T09:04:18.966Z,93.20
2017-09-27T09:06:46.339Z,87.87
2017-09-27T09:09:13.764Z,96.00
2017-09-27T09:11:41.094Z,93.20
2017-09-27T09:14:08.402Z,89.87
2017-09-27T09:16:35.734Z,94.83
2017-09-27T09:19:03.050Z,85.40
2017-09-27T09:21:30.408Z,92.90
2017-09-27T09:23:58.034Z,91.97
2017-09-27T09:26:25.390Z,89.33
2017-09-27T09:28:52.728Z,90.63
2017-09-27T09:31:20.063Z,93.53
2017-09-27T09:33:47.618Z,82.57
2017-09-27T09:36:14.945Z,81.83
2017-09-27T09:38:42.301Z,81.57
2017-09-27T09:41:09.634Z,90.70
2017-09-27T09:43:36.977Z,88.57
2017-09-27T09:46:04.310Z,83.40
2017-09-27T09:48:31.776Z,91.07
2017-09-27T09:50:59.081Z,74.20
2017-09-27T09:53:26.429Z,76.57
2017-09-27T09:55:53.755Z,79.33
2017-09-27T09:58:21.063Z,76.90
2017-09-27T10:00:48.385Z,77.30
2017-09-27T10:03:15.916Z,75.93
2017-09-27T10:05:43.901Z,67.77
2017-09-27T10:08:11.706Z,79.10
2017-09-27T10:10:39.264Z,73.43
2017-09-27T10:13:06.855Z,83.63
2017-09-27T10:15:34.291Z,76.80
2017-09-27T10:18:01.654Z,72.47
2017-09-27T10:20:29.276Z,67.53
2017-09-27T10:22:56.609Z,67.37
2017-09-27T10:25:23.930Z,70.43
2017-09-27T10:27:51.280Z,63.73
2017-09-27T10:30:18.593Z,63.97
2017-09-27T10:32:45.926Z,63.73
2017-09-27T10:35:13.233Z,64.27
2017-09-27T10:37:40.863Z,57.73
2017-09-27T10:40:08.176Z,58.07
2017-09-27T10:42:35.532Z,59.97
2017-09-27T10:45:02.866Z,59.73
2017-09-27T10:47:30.253Z,56.90
2017-09-27T10:49:57.549Z,55.93
2017-09-27T10:52:24.921Z,60.73
2017-09-27T10:54:52.340Z,57.87
2017-09-27T10:57:19.665Z,58.97
2017-09-27T10:59:47.621Z,60.43
2017-09-27T11:02:14.954Z,53.07
2017-09-27T11:04:42.330Z,55.73
2017-09-27T11:07:09.645Z,45.33
2017-09-27T11:09:37.008Z,46.80
2017-09-27T11:12:04.353Z,43.53
2017-09-27T11:14:31.689Z,48.43
2017-09-27T11:16:59.018Z,43.73
2017-09-27T11:19:26.388Z,45.03
2017-09-27T11:21:53.697Z,41.30
2017-09-27T11:24:21.026Z,36.90
2017-09-27T11:26:48.519Z,46.17
2017-09-27T11:29:15.820Z,46.63
2017-09-27T11:31:43.405Z,39.03
2017-09-27T11:34:10.725Z,43.03
2017-09-27T11:36:38.066Z,48.30
2017-09-27T11:39:05.373Z,37.43
2017-09-27T11:41:32.697Z,36.27
2017-09-27T11:44:00.073Z,50.17
2017-09-27T11:46:27.413Z,34.07
2017-09-27T11:48:54.749Z,34.33
2017-09-27T11:51:22.065Z,35.73
2017-09-27T11:53:49.393Z,34.03
2017-09-27T11:56:16.708Z,37.00
2017-09-27T11:58:44.146Z,32.57
2017-09-27T12:01:11.470Z,31.30
2017-09-27T12:03:38.826Z,32.33
2017-09-27T12:06:06.192Z,31.00
2017-09-27T12:08:33.520Z,29.10
2017-09-27T12:11:00.820Z,31.27
2017-09-27T12:13:28.188Z,30.60
2017-09-27T12:15:55.553Z,32.73
2017-09-27T12:18:22.897Z,33.03
2017-09-27T12:20:50.400Z,35.17
2017-09-27T12:23:17.945Z,32.30
2017-09-27T12:25:45.314Z,31.53
2017-09-27T12:28:12.634Z,30.03
2017-09-27T12:30:39.979Z,32.93
2017-09-27T12:33:07.322Z,29.03
2017-09-27T12:35:35.003Z,31.57
2017-09-27T12:38:02.382Z,34.83
2017-09-27T12:40:29.809Z,33.23
2017-09-27T12:42:57.280Z,30.20
2017-09-27T12:45:24.597Z,29.33
2017-09-27T12:47:51.911Z,33.10
2017-09-27T12:50:19.257Z,31.63
2017-09-27T12:52:46.577Z,30.13
2017-09-27T12:55:13.885Z,30.23
2017-09-27T12:57:41.245Z,33.27
2017-09-27T13:00:08.553Z,30.10
2017-09-27T13:02:35.879Z,31.33
2017-09-27T13:05:03.197Z,33.80
2017-09-27T13:07:30.557Z,33.93
2017-09-27T13:09:57.874Z,31.10
2017-09-27T13:12:25.209Z,33.30
2017-09-27T13:14:52.513Z,30.87
2017-09-27T13:17:19.873Z,32.90
2017-09-27T13:19:47.189Z,30.10
2017-09-27T13:22:14.509Z,33.20
2017-09-27T13:24:41.813Z,37.73
2017-09-27T13:27:09.136Z,33.43
2017-09-27T13:29:36.465Z,35.57
2017-09-27T13:32:03.809Z,31.80
2017-09-27T13:34:31.137Z,33.00
2017-09-27T13:36:58.477Z,31.70
2017-09-27T13:39:25.941Z,30.90
2017-09-27T13:41:53.341Z,29.90
2017-09-27T13:44:20.661Z,32.10
2017-09-27T13:46:48.040Z,30.37
2017-09-27T13:49:15.370Z,31.67
2017-09-27T13:51:42.680Z,29.17
2017-09-27T13:54:09.997Z,28.80
2017-09-27T13:56:37.357Z,32.77
2017-09-27T13:59:04.682Z,35.17
2017-09-27T14:01:32.033Z,30.20
2017-09-27T14:03:59.357Z,28.73
2017-09-27T14:06:26.677Z,29.03
2017-09-27T14:08:54.069Z,28.27
2017-09-27T14:11:21.389Z,26.47
2017-09-27T14:13:48.702Z,28.40
2017-09-27T14:16:16.073Z,28.63
2017-09-27T14:18:43.701Z,31.57
2017-09-27T14:21:11.029Z,31.40
2017-09-27T14:23:38.377Z,30.03
2017-09-27T14:26:05.756Z,25.00
2017-09-27T14:28:33.070Z,24.43
2017-09-27T14:31:00.449Z,23.23
2017-09-27T14:33:27.798Z,25.70
2017-09-27T14:35:55.141Z,21.97
2017-09-27T14:38:22.617Z,24.30
2017-09-27T14:40:50.005Z,26.20
2017-09-27T14:43:17.300Z,26.23
2017-09-27T14:45:44.662Z,21.70
2017-09-27T14:48:11.971Z,21.60
2017-09-27T14:50:39.281Z,24.60
2017-09-27T14:53:06.625Z,27.43
2017-09-27T14:55:33.944Z,27.57
2017-09-27T14:58:01.274Z,24.10
2017-09-27T15:00:28.594Z,26.17
2017-09-27T15:02:56.737Z,46.67
2017-09-27T15:05:24.045Z,27.10
2017-09-27T15:07:51.570Z,37.00
2017-09-27T15:10:18.916Z,23.53
2017-09-27T15:12:46.257Z,26.10
2017-09-27T15:15:13.567Z,29.93
2017-09-27T15:17:41.315Z,27.03
2017-09-27T15:20:08.641Z,32.70
2017-09-27T15:22:35.981Z,24.43
2017-09-27T15:25:03.309Z,24.93
2017-09-27T15:27:30.641Z,29.13
2017-09-27T15:29:57.985Z,31.67
2017-09-27T15:32:25.293Z,35.63
2017-09-27T15:34:52.722Z,28.50
2017-09-27T15:37:20.069Z,27.10
2017-09-27T15:39:47.429Z,29.40
2017-09-27T15:42:14.742Z,27.13
2017-09-27T15:44:42.117Z,29.57
2017-09-27T15:47:09.439Z,28.13
2017-09-27T15:49:36.813Z,29.10
2017-09-27T15:52:04.130Z,33.77
2017-09-27T15:54:31.523Z,27.20
2017-09-27T15:56:58.830Z,28.37
2017-09-27T15:59:26.149Z,30.40
2017-09-27T16:01:53.466Z,24.73
2017-09-27T16:04:20.774Z,29.43
2017-09-27T16:06:48.098Z,24.73
2017-09-27T16:09:15.413Z,25.03
2017-09-27T16:11:42.761Z,24.10
2017-09-27T16:14:10.078Z,27.43
2017-09-27T16:16:37.413Z,27.33
2017-09-27T16:19:04.752Z,23.90
2017-09-27T16:21:32.093Z,26.60
2017-09-27T16:23:59.415Z,27.63
2017-09-27T16:26:27.081Z,31.87
2017-09-27T16:28:54.409Z,39.70
2017-09-27T16:31:21.777Z,28.70
2017-09-27T16:33:49.114Z,29.93
2017-09-27T16:36:16.472Z,30.50
2017-09-27T16:38:43.822Z,33.47
2017-09-27T16:41:11.150Z,35.23
2017-09-27T16:43:39.705Z,29.67
2017-09-27T16:46:07.034Z,36.93
2017-09-27T16:48:34.388Z,29.13
2017-09-27T16:51:01.713Z,32.43
2017-09-27T16:53:29.080Z,29.47
2017-09-27T16:55:56.394Z,28.30
2017-09-27T16:58:23.756Z,32.53
2017-09-27T17:00:51.080Z,30.33
2017-09-27T17:03:18.447Z,26.83
2017-09-27T17:05:45.773Z,31.27
2017-09-27T17:08:13.099Z,27.23
2017-09-27T17:10:40.417Z,34.13
2017-09-27T17:13:07.761Z,30.10
2017-09-27T17:15:35.073Z,28.00
2017-09-27T17:18:02.418Z,29.43
2017-09-27T17:20:29.749Z,26.93
2017-09-27T17:22:57.057Z,32.27
2017-09-27T17:25:24.392Z,31.83
2017-09-27T17:27:51.723Z,34.40
2017-09-27T17:30:19.043Z,29.60
2017-09-27T17:32:46.363Z,35.20
2017-09-27T17:35:13.681Z,27.57
2017-09-27T17:37:40.993Z,29.60
2017-09-27T17:40:08.312Z,32.10
2017-09-27T17:42:35.649Z,31.67
2017-09-27T17:45:02.953Z,30.43
2017-09-27T17:47:30.554Z,31.33
2017-09-27T17:49:57.902Z,30.53
2017-09-27T17:52:25.272Z,37.73
2017-09-27T17:54:52.897Z,29.13
2017-09-27T17:57:20.251Z,32.43
2017-09-27T17:59:47.561Z,28.73
2017-09-27T18:02:14.882Z,30.87
2017-09-27T18:04:47.979Z,30.97
2017-09-27T18:07:30.966Z,30.87
2017-09-27T18:10:14.007Z,30.20
2017-09-27T18:12:50.134Z,30.27
2017-09-27T18:15:23.309Z,29.50
2017-09-27T18:17:51.405Z,26.97
2017-09-27T18:20:18.726Z,28.83
2017-09-27T18:22:46.042Z,35.23
2017-09-27T18:25:13.366Z,29.40
2017-09-27T18:27:40.693Z,28.20
2017-09-27T18:30:08.011Z,29.63
2017-09-27T18:32:35.386Z,29.37
2017-09-27T18:35:03.589Z,31.63
2017-09-27T18:37:30.949Z,33.13
2017-09-27T18:39:58.269Z,27.23
2017-09-27T18:42:25.595Z,35.90
2017-09-27T18:44:52.906Z,27.20
2017-09-27T18:47:20.229Z,28.13
2017-09-27T18:49:48.779Z,32.10
2017-09-27T18:52:16.091Z,30.13
2017-09-27T18:54:43.405Z,30.20
2017-09-27T18:57:10.726Z,31.17
2017-09-27T18:59:38.034Z,31.23
2017-09-27T19:02:05.417Z,31.47
2017-09-27T19:04:32.733Z,28.60
2017-09-27T19:07:00.057Z,27.30
2017-09-27T19:09:27.410Z,33.40
2017-09-27T19:11:54.736Z,29.80
2017-09-27T19:14:22.067Z,31.07
2017-09-27T19:16:49.365Z,27.00
2017-09-27T19:19:16.689Z,25.10
2017-09-27T19:21:44.913Z,30.97
2017-09-27T19:24:12.237Z,28.80
2017-09-27T19:26:39.541Z,31.33
2017-09-27T19:29:06.921Z,30.93
2017-09-27T19:31:35.208Z,27.23
2017-09-27T19:34:02.858Z,39.13
2017-09-27T19:36:30.510Z,27.70
2017-09-27T19:38:57.886Z,26.70
2017-09-27T19:41:25.191Z,28.70
2017-09-27T19:43:52.526Z,29.73
2017-09-27T19:46:19.860Z,34.73
2017-09-27T19:48:47.160Z,29.77
2017-09-27T19:51:14.507Z,29.43
2017-09-27T19:53:41.797Z,34.10
2017-09-27T19:56:10.073Z,34.80
2017-09-27T19:58:37.377Z,28.07
2017-09-27T20:01:04.779Z,29.73
2017-09-27T20:03:32.126Z,27.50
2017-09-27T20:05:59.440Z,38.13
2017-09-27T20:08:27.054Z,30.80
2017-09-27T20:10:54.379Z,32.60
2017-09-27T20:13:21.702Z,31.47
2017-09-27T20:15:49.034Z,31.10
2017-09-27T20:18:16.359Z,30.33
2017-09-27T20:20:43.664Z,29.07
2017-09-27T20:23:10.996Z,36.40
2017-09-27T20:25:39.273Z,34.00
2017-09-27T20:28:06.597Z,34.67
2017-09-27T20:30:33.917Z,34.23
2017-09-27T20:33:01.245Z,31.83
2017-09-27T20:35:28.558Z,31.03
2017-09-27T20:37:55.897Z,32.40
2017-09-27T20:40:23.193Z,28.67
2017-09-27T22:04:47.445Z,33.20
2017-09-27T22:07:14.770Z,32.90
2017-09-27T22:09:42.085Z,32.53
2017-09-27T22:12:09.418Z,39.73
2017-09-27T22:14:36.761Z,34.03
2017-09-27T22:17:04.113Z,31.47
2017-09-27T22:19:31.441Z,40.13
2017-09-27T22:21:58.913Z,33.33
2017-09-27T22:24:26.222Z,30.20
2017-09-27T22:26:53.557Z,34.93
2017-09-27T22:29:20.888Z,32.53
2017-09-27T22:31:48.238Z,27.97
2017-09-27T22:34:15.566Z,28.43
2017-09-27T22:36:42.875Z,43.30
2017-09-27T22:39:10.201Z,31.33
2017-09-27T22:41:37.510Z,34.53
2017-09-27T22:44:04.825Z,36.07
2017-09-27T22:46:32.130Z,30.10
2017-09-27T22:48:59.461Z,30.97
2017-09-27T22:51:26.770Z,37.10
2017-09-27T22:53:54.137Z,32.90
2017-09-27T22:56:21.452Z,37.13
2017-09-27T22:58:48.842Z,29.10
2017-09-27T23:01:16.141Z,31.03
2017-09-27T23:03:43.476Z,32.80
2017-09-27T23:06:10.798Z,33.97
2017-09-27T23:08:38.161Z,31.50
2017-09-27T23:11:05.518Z,34.27
2017-09-27T23:13:32.841Z,30.30
2017-09-27T23:16:00.157Z,36.23
2017-09-27T23:18:27.477Z,34.13
2017-09-27T23:20:54.806Z,34.07
2017-09-27T23:23:22.102Z,36.03
2017-09-27T23:25:49.491Z,38.87
2017-09-27T23:28:16.789Z,32.03
2017-09-27T23:30:44.191Z,37.77
2017-09-27T23:33:11.494Z,33.43
2017-09-27T23:35:38.805Z,37.23
2017-09-27T23:38:06.129Z,33.27
2017-09-27T23:40:33.429Z,31.40
2017-09-27T23:43:00.752Z,33.87
2017-09-27T23:45:28.069Z,32.83
2017-09-27T23:47:55.389Z,39.53
2017-09-27T23:50:22.693Z,35.03
2017-09-27T23:52:50.025Z,29.27
2017-09-27T23:55:17.660Z,35.27
2017-09-27T23:57:45.021Z,32.33
